createdAt,value
2022-09-23T00:02:21.049Z,64.32
2022-09-23T00:04:53.183Z,64.25
2022-09-23T00:07:25.151Z,64.47
2022-09-23T00:09:58.814Z,64.35
2022-09-23T00:12:30.627Z,64.29
2022-09-23T00:15:03.890Z,64.38
2022-09-23T00:17:35.723Z,64.26
2022-09-23T00:20:09.370Z,64.31
2022-09-23T00:22:41.380Z,64.20
2022-09-23T00:25:13.332Z,64.11
2022-09-23T00:27:46.199Z,64.30
2022-09-23T00:30:18.478Z,64.16
2022-09-23T00:32:50.426Z,64.23
2022-09-23T00:35:22.515Z,63.96
2022-09-23T00:37:54.363Z,64.00
2022-09-23T00:40:26.292Z,64.20
2022-09-23T00:42:58.363Z,64.00
2022-09-23T00:45:30.311Z,63.76
2022-09-23T00:48:02.874Z,64.01
2022-09-23T00:50:37.999Z,63.93
2022-09-23T00:53:12.757Z,64.11
2022-09-23T00:55:49.864Z,64.15
2022-09-23T00:58:26.809Z,64.14
2022-09-23T01:01:02.735Z,64.28
2022-09-23T01:03:35.213Z,63.96
2022-09-23T01:06:07.310Z,63.93
2022-09-23T01:08:40.494Z,63.84
2022-09-23T01:11:24.186Z,64.14
2022-09-23T01:14:01.815Z,63.87
2022-09-23T01:16:48.226Z,64.27
2022-09-23T01:19:43.769Z,64.16
2022-09-23T01:22:34.298Z,63.80
2022-09-23T01:25:13.392Z,64.18
2022-09-23T01:27:56.312Z,64.38
2022-09-23T01:30:44.845Z,64.16
2022-09-23T01:33:30.461Z,64.31
2022-09-23T01:36:10.083Z,64.06
2022-09-23T01:38:41.981Z,63.75
2022-09-23T01:41:32.134Z,64.32
2022-09-23T01:44:09.880Z,63.91
2022-09-23T01:46:48.370Z,63.93
2022-09-23T01:49:29.022Z,63.95
2022-09-23T01:52:09.622Z,63.98
2022-09-23T01:55:08.629Z,64.29
2022-09-23T01:57:43.969Z,64.09
2022-09-23T02:00:17.740Z,64.34
2022-09-23T02:02:56.365Z,64.10
2022-09-23T02:05:33.154Z,64.19
2022-09-23T02:08:13.311Z,64.35
2022-09-23T02:11:07.851Z,64.70
2022-09-23T02:13:50.680Z,64.64
2022-09-23T02:16:32.206Z,64.36
2022-09-23T02:19:27.386Z,64.38
2022-09-23T02:22:09.269Z,64.89
2022-09-23T02:24:41.801Z,64.34
2022-09-23T02:27:26.443Z,64.82
2022-09-23T02:30:12.622Z,64.64
2022-09-23T02:32:54.746Z,64.50
2022-09-23T02:35:49.428Z,64.82
2022-09-23T02:38:52.314Z,65.11
2022-09-23T02:41:52.125Z,65.44
2022-09-23T02:44:24.404Z,64.78
2022-09-23T02:46:57.799Z,64.78
2022-09-23T02:49:31.636Z,64.70
2022-09-23T02:52:04.988Z,64.77
2022-09-23T02:54:37.410Z,64.97
2022-09-23T02:57:09.721Z,64.82
2022-09-23T02:59:41.729Z,64.86
2022-09-23T03:02:24.239Z,65.04
2022-09-23T03:05:30.146Z,64.88
2022-09-23T03:08:19.245Z,64.77
2022-09-23T03:11:15.225Z,65.00
2022-09-23T03:14:07.188Z,65.04
2022-09-23T03:16:47.707Z,65.19
2022-09-23T03:19:35.791Z,64.99
2022-09-23T03:22:14.946Z,64.98
2022-09-23T03:24:51.872Z,64.90
2022-09-23T03:27:29.104Z,64.74
2022-09-23T03:30:01.343Z,64.75
2022-09-23T03:32:34.840Z,64.58
2022-09-23T03:35:07.206Z,64.65
2022-09-23T03:37:51.107Z,64.52
2022-09-23T03:40:27.163Z,64.46
2022-09-23T03:43:01.405Z,64.41
2022-09-23T03:45:34.424Z,64.29
2022-09-23T03:48:07.139Z,64.24
2022-09-23T03:50:39.294Z,64.25
2022-09-23T03:53:13.803Z,63.99
2022-09-23T03:55:46.627Z,63.78
2022-09-23T03:58:18.940Z,63.86
2022-09-23T04:00:50.935Z,64.03
2022-09-23T04:03:22.979Z,63.71
2022-09-23T04:05:55.052Z,63.87
2022-09-23T04:08:27.338Z,64.06
2022-09-23T04:11:02.737Z,64.23
2022-09-23T04:13:34.701Z,64.00
2022-09-23T04:16:06.812Z,63.91
2022-09-23T04:18:38.757Z,63.99
2022-09-23T04:21:10.663Z,64.03
2022-09-23T04:23:42.816Z,63.88
2022-09-23T04:26:15.051Z,64.17
2022-09-23T04:28:47.608Z,63.96
2022-09-23T04:31:19.733Z,64.14
2022-09-23T04:33:54.760Z,64.07
2022-09-23T04:36:26.892Z,64.22
2022-09-23T04:38:58.779Z,64.16
2022-09-23T04:41:30.819Z,64.42
2022-09-23T04:44:02.807Z,64.50
2022-09-23T04:46:34.913Z,64.31
2022-09-23T04:49:07.642Z,64.49
2022-09-23T04:51:43.282Z,64.20
2022-09-23T04:54:15.170Z,64.24
2022-09-23T04:56:47.228Z,64.52
2022-09-23T04:59:19.353Z,64.38
2022-09-23T05:01:52.077Z,64.10
2022-09-23T05:04:24.578Z,64.18
2022-09-23T05:06:59.506Z,64.25
2022-09-23T05:09:34.927Z,64.22
2022-09-23T05:12:06.972Z,64.35
2022-09-23T05:14:41.892Z,64.41
2022-09-23T05:17:14.746Z,64.37
2022-09-23T05:19:46.726Z,64.32
2022-09-23T05:22:18.608Z,64.21
2022-09-23T05:24:50.494Z,64.00
2022-09-23T05:27:22.550Z,63.95
2022-09-23T05:29:54.582Z,64.11
2022-09-23T05:32:26.547Z,64.02
2022-09-23T05:34:58.719Z,63.96
2022-09-23T05:37:33.117Z,63.86
2022-09-23T05:40:05.856Z,63.70
2022-09-23T05:42:37.974Z,64.18
2022-09-23T05:45:09.989Z,64.00
2022-09-23T05:47:42.072Z,63.87
2022-09-23T05:50:14.060Z,63.69
2022-09-23T05:52:46.034Z,63.92
2022-09-23T05:55:18.040Z,63.79
2022-09-23T05:57:50.087Z,63.64
2022-09-23T06:00:22.065Z,63.62
2022-09-23T06:02:54.135Z,63.54
2022-09-23T06:05:26.244Z,63.63
2022-09-23T06:07:58.421Z,63.59
2022-09-23T06:10:30.461Z,63.55
2022-09-23T06:13:02.526Z,63.39
2022-09-23T06:15:35.045Z,63.56
2022-09-23T06:18:07.049Z,63.62
2022-09-23T06:20:39.481Z,63.61
2022-09-23T06:23:11.903Z,63.43
2022-09-23T06:25:43.759Z,63.35
2022-09-23T06:28:19.929Z,63.23
2022-09-23T06:30:57.619Z,63.37
2022-09-23T06:33:36.623Z,63.47
2022-09-23T06:36:09.609Z,63.28
2022-09-23T06:38:44.751Z,63.47
2022-09-23T06:41:16.942Z,63.58
2022-09-23T06:43:48.987Z,63.58
2022-09-23T06:46:21.206Z,63.55
2022-09-23T06:48:53.306Z,63.58
2022-09-23T06:51:25.714Z,63.84
2022-09-23T06:53:57.651Z,63.57
2022-09-23T06:56:31.570Z,63.72
2022-09-23T06:59:09.981Z,63.59
2022-09-23T07:01:42.149Z,63.50
2022-09-23T07:04:14.600Z,63.67
2022-09-23T07:06:46.739Z,63.73
2022-09-23T07:09:19.503Z,63.71
2022-09-23T07:11:55.482Z,63.91
2022-09-23T07:14:27.460Z,64.13
2022-09-23T07:16:59.989Z,63.95
2022-09-23T07:19:31.991Z,64.17
2022-09-23T07:22:04.999Z,64.21
2022-09-23T07:24:37.357Z,63.98
2022-09-23T07:27:09.619Z,64.17
2022-09-23T07:29:48.754Z,63.95
2022-09-23T07:32:24.435Z,63.82
2022-09-23T07:34:57.593Z,63.72
2022-09-23T07:37:29.545Z,63.31
2022-09-23T07:40:01.991Z,63.24
2022-09-23T07:42:35.219Z,62.66
2022-09-23T07:45:09.002Z,62.24
2022-09-23T07:47:41.202Z,61.58
2022-09-23T07:50:13.218Z,61.44
2022-09-23T07:52:45.339Z,61.60
2022-09-23T07:55:21.012Z,61.55
2022-09-23T07:57:53.557Z,61.60
2022-09-23T08:00:25.739Z,61.16
2022-09-23T08:02:57.729Z,61.35
2022-09-23T08:05:30.206Z,61.05
2022-09-23T08:08:02.390Z,61.22
2022-09-23T08:10:34.515Z,61.41
2022-09-23T08:13:06.429Z,61.47
2022-09-23T08:15:39.151Z,61.39
2022-09-23T08:18:11.149Z,61.08
2022-09-23T08:20:47.988Z,61.41
2022-09-23T08:23:20.499Z,61.30
2022-09-23T08:26:03.047Z,61.08
2022-09-23T08:28:36.114Z,60.99
2022-09-23T08:31:08.510Z,60.83
2022-09-23T08:33:41.092Z,60.99
2022-09-23T08:36:13.876Z,60.90
2022-09-23T08:38:45.972Z,60.97
2022-09-23T08:41:27.208Z,60.83
2022-09-23T08:44:12.046Z,61.06
2022-09-23T08:46:48.021Z,60.83
2022-09-23T08:49:27.319Z,60.58
2022-09-23T08:52:00.153Z,60.50
2022-09-23T08:54:32.220Z,60.53
2022-09-23T08:57:05.817Z,60.37
2022-09-23T08:59:43.054Z,60.15
2022-09-23T09:02:22.052Z,60.03
2022-09-23T09:05:00.132Z,59.71
2022-09-23T09:07:37.725Z,59.69
2022-09-23T09:10:10.300Z,59.62
2022-09-23T09:12:45.768Z,59.64
2022-09-23T09:15:24.706Z,59.49
2022-09-23T09:18:20.054Z,59.71
2022-09-23T09:21:00.678Z,59.53
2022-09-23T09:23:35.463Z,59.70
2022-09-23T09:26:12.225Z,59.93
2022-09-23T09:28:59.097Z,59.46
2022-09-23T09:31:42.737Z,59.47
2022-09-23T09:34:41.274Z,59.63
2022-09-23T09:37:25.329Z,59.49
2022-09-23T09:39:57.262Z,59.70
2022-09-23T09:42:40.726Z,59.59
2022-09-23T09:45:20.094Z,59.64
2022-09-23T09:48:10.928Z,59.67
2022-09-23T09:50:51.926Z,59.46
2022-09-23T09:53:29.421Z,59.10
2022-09-23T09:56:05.849Z,59.05
2022-09-23T09:58:53.510Z,58.79
2022-09-23T10:01:28.899Z,58.95
2022-09-23T10:04:05.790Z,58.69
2022-09-23T10:06:37.999Z,58.59
2022-09-23T10:09:17.345Z,58.30
2022-09-23T10:12:04.733Z,57.98
2022-09-23T10:14:37.454Z,58.07
2022-09-23T10:17:15.928Z,57.13
2022-09-23T10:19:50.403Z,57.31
2022-09-23T10:22:24.973Z,56.79
2022-09-23T10:25:01.194Z,56.82
2022-09-23T10:27:35.827Z,56.55
2022-09-23T10:30:22.941Z,55.81
2022-09-23T10:32:57.101Z,56.36
2022-09-23T10:35:33.482Z,55.71
2022-09-23T10:38:05.584Z,55.28
2022-09-23T10:41:00.480Z,54.41
2022-09-23T10:44:15.033Z,52.55
2022-09-23T10:47:04.883Z,52.62
2022-09-23T10:50:03.593Z,51.81
2022-09-23T10:52:42.907Z,52.92
2022-09-23T10:55:41.268Z,51.99
2022-09-23T10:58:50.614Z,50.77
2022-09-23T11:01:31.695Z,50.79
2022-09-23T11:04:14.635Z,51.27
2022-09-23T11:06:46.655Z,50.96
2022-09-23T11:09:49.519Z,48.07
2022-09-23T11:12:37.132Z,47.91
2022-09-23T11:15:16.786Z,49.20
2022-09-23T11:18:07.144Z,48.61
2022-09-23T11:21:16.993Z,47.18
2022-09-23T11:24:16.029Z,45.75
2022-09-23T11:26:59.802Z,46.42
2022-09-23T11:29:50.675Z,45.59
2022-09-23T11:32:48.714Z,44.40
2022-09-23T11:35:59.285Z,44.08
2022-09-23T11:38:41.064Z,44.35
2022-09-23T11:41:19.147Z,45.10
2022-09-23T11:43:56.153Z,44.70
2022-09-23T11:46:36.289Z,43.80
2022-09-23T11:49:19.312Z,43.27
2022-09-23T11:52:05.380Z,43.17
2022-09-23T11:55:23.259Z,42.37
2022-09-23T11:58:00.088Z,42.90
2022-09-23T12:00:36.136Z,43.63
2022-09-23T12:03:32.627Z,42.67
2022-09-23T12:06:15.821Z,42.54
2022-09-23T12:08:51.676Z,42.58
2022-09-23T12:11:30.766Z,41.50
2022-09-23T12:14:25.863Z,41.03
2022-09-23T12:17:07.232Z,42.53
2022-09-23T12:19:39.576Z,42.16
2022-09-23T12:22:37.674Z,39.34
2022-09-23T12:25:22.435Z,40.80
2022-09-23T12:27:55.834Z,40.98
2022-09-23T12:30:30.460Z,40.50
2022-09-23T12:33:24.808Z,39.03
2022-09-23T12:36:13.876Z,38.71
2022-09-23T12:38:51.680Z,37.99
2022-09-23T12:41:24.096Z,39.08
2022-09-23T12:44:00.791Z,38.38
2022-09-23T12:46:32.993Z,38.79
2022-09-23T12:49:08.617Z,38.47
2022-09-23T12:52:12.937Z,38.27
2022-09-23T12:54:51.525Z,38.33
2022-09-23T12:57:35.478Z,37.97
2022-09-23T13:00:12.142Z,38.85
2022-09-23T13:02:46.739Z,39.05
2022-09-23T13:05:42.491Z,38.68
2022-09-23T13:08:23.970Z,38.18
2022-09-23T13:10:56.739Z,38.97
2022-09-23T13:13:33.352Z,37.97
2022-09-23T13:16:22.358Z,37.29
2022-09-23T13:19:02.582Z,37.76
2022-09-23T13:21:43.689Z,38.13
2022-09-23T13:24:31.245Z,37.98
2022-09-23T13:27:07.026Z,38.55
2022-09-23T13:29:46.660Z,38.39
2022-09-23T13:32:20.295Z,38.66
2022-09-23T13:35:00.426Z,38.15
2022-09-23T13:37:42.911Z,38.61
2022-09-23T13:40:25.433Z,37.95
2022-09-23T13:43:03.740Z,38.75
2022-09-23T13:45:41.474Z,38.67
2022-09-23T13:48:16.281Z,38.39
2022-09-23T13:50:50.587Z,38.64
2022-09-23T13:53:31.911Z,37.87
2022-09-23T13:56:10.079Z,38.01
2022-09-23T13:58:43.358Z,38.39
2022-09-23T14:01:35.036Z,37.46
2022-09-23T14:04:23.253Z,37.77
2022-09-23T14:06:56.149Z,38.40
2022-09-23T14:09:29.816Z,38.34
2022-09-23T14:12:02.597Z,38.35
2022-09-23T14:14:37.116Z,38.49
2022-09-23T14:17:10.334Z,38.46
2022-09-23T14:19:42.605Z,38.65
2022-09-23T14:22:30.547Z,38.04
2022-09-23T14:25:03.530Z,38.63
2022-09-23T14:27:39.717Z,38.88
2022-09-23T14:30:15.932Z,38.63
2022-09-23T14:32:47.940Z,38.73
2022-09-23T14:35:24.210Z,38.68
2022-09-23T14:38:16.499Z,38.88
2022-09-23T14:40:53.676Z,39.00
2022-09-23T14:43:28.570Z,39.08
2022-09-23T14:46:00.806Z,39.10
2022-09-23T14:48:35.974Z,38.86
2022-09-23T14:51:10.930Z,39.03
2022-09-23T14:53:46.943Z,39.01
2022-09-23T14:56:21.160Z,39.19
2022-09-23T14:58:57.735Z,39.20
2022-09-23T15:01:33.435Z,39.32
2022-09-23T15:04:30.872Z,39.24
2022-09-23T15:07:07.032Z,39.65
2022-09-23T15:09:41.241Z,39.63
2022-09-23T15:12:20.674Z,39.94
2022-09-23T15:14:54.684Z,40.23
2022-09-23T15:17:33.626Z,40.48
2022-09-23T15:20:08.454Z,40.56
2022-09-23T15:22:48.835Z,40.79
2022-09-23T15:25:41.177Z,41.00
2022-09-23T15:28:13.089Z,41.06
2022-09-23T15:30:45.707Z,41.14
2022-09-23T15:33:17.770Z,41.12
2022-09-23T15:35:50.028Z,41.26
2022-09-23T15:38:22.190Z,41.38
2022-09-23T15:40:54.344Z,41.64
2022-09-23T15:43:26.889Z,41.69
2022-09-23T15:46:00.061Z,41.68
2022-09-23T15:48:38.677Z,41.78
2022-09-23T15:51:14.621Z,42.01
2022-09-23T15:53:47.762Z,42.12
2022-09-23T15:56:19.782Z,42.03
2022-09-23T15:58:51.629Z,42.03
2022-09-23T16:01:28.111Z,42.52
2022-09-23T16:04:04.312Z,42.32
2022-09-23T16:06:36.588Z,42.54
2022-09-23T16:09:10.424Z,42.55
2022-09-23T16:11:46.105Z,42.82
2022-09-23T16:14:18.465Z,42.94
2022-09-23T16:16:50.461Z,43.20
2022-09-23T16:19:22.523Z,43.28
2022-09-23T16:21:54.549Z,43.25
2022-09-23T16:24:28.305Z,43.62
2022-09-23T16:27:03.052Z,43.79
2022-09-23T16:29:35.074Z,43.81
2022-09-23T16:32:07.057Z,44.05
2022-09-23T16:34:38.882Z,44.27
2022-09-23T16:37:16.669Z,44.37
2022-09-23T16:39:49.804Z,44.45
2022-09-23T16:42:22.293Z,44.48
2022-09-23T16:44:54.126Z,44.61
2022-09-23T16:47:26.115Z,44.82
2022-09-23T16:49:58.036Z,45.00
2022-09-23T16:52:31.033Z,44.93
2022-09-23T16:55:02.985Z,45.09
2022-09-23T16:57:37.269Z,45.25
2022-09-23T17:00:32.383Z,45.49
2022-09-23T17:03:24.060Z,45.56
2022-09-23T17:05:56.175Z,45.90
2022-09-23T17:08:28.077Z,45.78
2022-09-23T17:11:00.606Z,46.09
2022-09-23T17:13:32.705Z,46.22
2022-09-23T17:16:04.995Z,46.28
2022-09-23T17:18:38.815Z,46.39
2022-09-23T17:21:10.665Z,46.44
2022-09-23T17:23:42.731Z,46.48
2022-09-23T17:26:15.179Z,46.42
2022-09-23T17:28:47.374Z,46.64
2022-09-23T17:31:19.510Z,46.71
2022-09-23T17:33:52.725Z,46.94
2022-09-23T17:36:24.655Z,46.97
2022-09-23T17:38:56.691Z,47.01
2022-09-23T17:41:29.734Z,47.30
2022-09-23T17:44:01.802Z,47.43
2022-09-23T17:46:33.746Z,47.54
2022-09-23T17:49:07.971Z,47.69
2022-09-23T17:51:40.521Z,47.75
2022-09-23T17:54:14.903Z,47.94
2022-09-23T17:56:46.857Z,47.66
2022-09-23T17:59:19.040Z,47.78
2022-09-23T18:01:50.932Z,47.98
2022-09-23T18:04:23.011Z,47.87
2022-09-23T18:06:55.193Z,47.80
2022-09-23T18:09:27.091Z,48.04
2022-09-23T18:11:58.938Z,48.27
2022-09-23T18:14:30.817Z,48.44
2022-09-23T18:17:02.671Z,48.53
2022-09-23T18:19:34.554Z,48.67
2022-09-23T18:22:06.439Z,48.68
2022-09-23T18:24:41.063Z,48.64
2022-09-23T18:27:13.134Z,48.70
2022-09-23T18:29:45.083Z,48.77
2022-09-23T18:32:17.247Z,48.78
2022-09-23T18:34:49.313Z,49.14
2022-09-23T18:37:21.388Z,49.04
2022-09-23T18:39:53.262Z,49.21
2022-09-23T18:42:26.968Z,49.45
2022-09-23T18:44:58.865Z,49.63
2022-09-23T18:47:49.704Z,49.63
2022-09-23T18:50:40.253Z,49.76
2022-09-23T18:53:12.067Z,50.11
2022-09-23T18:55:43.913Z,50.35
2022-09-23T18:58:15.798Z,50.69
2022-09-23T19:00:50.240Z,50.82
2022-09-23T19:03:22.127Z,51.08
2022-09-23T19:05:54.370Z,51.29
2022-09-23T19:08:26.869Z,51.44
2022-09-23T19:11:00.295Z,51.57
2022-09-23T19:13:33.476Z,52.01
2022-09-23T19:16:09.874Z,52.24
2022-09-23T19:18:43.711Z,52.04
2022-09-23T19:21:17.420Z,52.21
2022-09-23T19:23:51.465Z,52.51
2022-09-23T19:26:26.273Z,52.68
2022-09-23T19:28:59.690Z,52.64
2022-09-23T19:31:34.100Z,52.74
2022-09-23T19:34:10.684Z,53.03
2022-09-23T19:36:44.831Z,53.27
2022-09-23T19:39:22.287Z,53.32
2022-09-23T19:41:55.790Z,53.17
2022-09-23T19:44:27.998Z,53.31
2022-09-23T19:46:59.942Z,53.57
2022-09-23T19:49:31.981Z,53.76
2022-09-23T19:52:03.906Z,53.54
2022-09-23T19:54:35.807Z,53.92
2022-09-23T19:57:08.952Z,53.83
2022-09-23T19:59:42.042Z,53.87
2022-09-23T20:02:14.142Z,53.90
2022-09-23T20:04:46.066Z,54.01
2022-09-23T20:07:19.256Z,54.31
2022-09-23T20:09:51.068Z,54.23
2022-09-23T20:12:23.317Z,54.19
2022-09-23T20:14:55.222Z,54.19
2022-09-23T20:17:28.029Z,54.25
2022-09-23T20:20:00.032Z,54.39
2022-09-23T20:22:34.027Z,54.36
2022-09-23T20:25:09.348Z,54.62
2022-09-23T20:27:41.205Z,54.58
2022-09-23T20:30:13.186Z,54.84
2022-09-23T20:32:45.617Z,54.99
2022-09-23T20:35:17.444Z,54.65
2022-09-23T20:37:51.963Z,55.02
2022-09-23T20:40:24.089Z,54.82
2022-09-23T20:42:55.991Z,54.92
2022-09-23T20:45:27.935Z,55.14
2022-09-23T20:48:00.156Z,55.07
2022-09-23T20:50:32.090Z,55.06
2022-09-23T20:53:04.097Z,55.06
2022-09-23T20:55:36.027Z,55.32
2022-09-23T20:58:07.838Z,55.65
2022-09-23T21:00:41.410Z,55.93
2022-09-23T21:03:13.603Z,56.13
2022-09-23T21:05:45.754Z,56.01
2022-09-23T21:08:17.620Z,56.27
2022-09-23T21:10:56.509Z,56.98
2022-09-23T21:13:29.026Z,56.58
2022-09-23T21:16:05.352Z,56.82
2022-09-23T21:18:38.242Z,56.73
2022-09-23T21:21:11.275Z,57.09
2022-09-23T21:23:43.499Z,57.17
2022-09-23T21:26:20.771Z,57.34
2022-09-23T21:28:57.788Z,57.54
2022-09-23T21:31:38.726Z,58.53
2022-09-23T21:34:11.431Z,57.86
2022-09-23T21:36:44.156Z,57.99
2022-09-23T21:39:16.064Z,57.91
2022-09-23T21:41:48.063Z,58.00
2022-09-23T21:44:20.086Z,57.91
2022-09-23T21:46:52.208Z,58.03
2022-09-23T21:49:24.187Z,58.04
2022-09-23T21:51:58.958Z,58.17
2022-09-23T21:54:32.048Z,58.19
2022-09-23T21:57:03.976Z,58.18
2022-09-23T21:59:35.826Z,58.29
2022-09-23T22:02:08.001Z,58.15
2022-09-23T22:04:39.928Z,58.08
2022-09-23T22:07:12.084Z,58.08
2022-09-23T22:09:46.924Z,58.35
2022-09-23T22:12:18.887Z,58.14
2022-09-23T22:14:51.590Z,58.38
2022-09-23T22:17:23.699Z,58.39
2022-09-23T22:19:55.776Z,58.64
2022-09-23T22:22:27.691Z,58.60
2022-09-23T22:24:59.779Z,58.67
2022-09-23T22:27:31.623Z,59.06
2022-09-23T22:30:22.512Z,59.12
2022-09-23T22:32:55.266Z,58.96
2022-09-23T22:35:27.384Z,58.96
2022-09-23T22:38:01.053Z,58.81
2022-09-23T22:40:33.029Z,58.85
2022-09-23T22:43:04.981Z,59.11
2022-09-23T22:45:37.679Z,59.29
2022-09-23T22:48:09.569Z,59.22
2022-09-23T22:50:41.833Z,59.37
2022-09-23T22:53:14.135Z,59.60
2022-09-23T22:55:46.037Z,59.87
2022-09-23T22:58:31.678Z,59.87
2022-09-23T23:01:05.439Z,59.88
2022-09-23T23:03:38.269Z,59.89
2022-09-23T23:06:10.288Z,59.96
2022-09-23T23:08:42.259Z,60.02
2022-09-23T23:11:14.163Z,60.18
2022-09-23T23:13:46.020Z,60.14
2022-09-23T23:16:18.016Z,60.22
2022-09-23T23:18:50.002Z,60.39
2022-09-23T23:21:22.478Z,60.60
2022-09-23T23:23:54.303Z,61.10
2022-09-23T23:26:28.320Z,61.25
2022-09-23T23:29:01.473Z,61.61
2022-09-23T23:31:33.570Z,61.44
2022-09-23T23:34:08.327Z,61.35
2022-09-23T23:36:41.443Z,61.55
2022-09-23T23:39:13.951Z,61.58
2022-09-23T23:41:45.868Z,61.33
2022-09-23T23:44:17.711Z,61.48
2022-09-23T23:46:49.720Z,61.24
2022-09-23T23:49:21.984Z,61.41
2022-09-23T23:51:54.067Z,61.12
2022-09-23T23:54:25.966Z,61.38
2022-09-23T23:56:57.986Z,61.53
2022-09-23T23:59:29.943Z,61.59
